createdAt,value
2018-12-12T00:00:45.619Z,60.42
2018-12-12T00:03:13.923Z,61.75
2018-12-12T00:05:42.243Z,61.08
2018-12-12T00:08:10.769Z,61.69
2018-12-12T00:10:39.106Z,63.78
2018-12-12T00:13:07.488Z,60.91
2018-12-12T00:15:35.746Z,61.98
2018-12-12T00:18:04.574Z,60.52
2018-12-12T00:20:32.804Z,60.18
2018-12-12T00:23:01.200Z,60.67
2018-12-12T00:25:29.809Z,61.34
2018-12-12T00:27:58.222Z,60.49
2018-12-12T00:30:26.534Z,60.19
2018-12-12T00:32:55.009Z,59.88
2018-12-12T00:35:23.506Z,59.48
2018-12-12T00:37:51.944Z,60.26
2018-12-12T00:40:20.266Z,61.63
2018-12-12T00:42:48.782Z,59.40
2018-12-12T00:45:17.187Z,59.02
2018-12-12T00:47:45.873Z,58.89
2018-12-12T00:50:14.195Z,60.02
2018-12-12T00:52:42.566Z,58.76
2018-12-12T00:55:10.903Z,65.86
2018-12-12T00:57:39.189Z,61.46
2018-12-12T01:00:08.557Z,58.04
2018-12-12T01:02:37.003Z,59.19
2018-12-12T01:05:05.547Z,58.73
2018-12-12T01:07:34.137Z,57.46
2018-12-12T01:10:02.545Z,57.78
2018-12-12T01:12:30.911Z,58.90
2018-12-12T01:14:59.302Z,57.03
2018-12-12T01:17:27.839Z,67.87
2018-12-12T01:19:56.230Z,58.33
2018-12-12T01:22:24.721Z,59.44
2018-12-12T01:24:52.966Z,56.69
2018-12-12T01:27:21.289Z,56.34
2018-12-12T01:29:49.820Z,57.71
2018-12-12T01:32:18.095Z,57.43
2018-12-12T01:34:46.530Z,57.24
2018-12-12T01:37:15.086Z,57.69
2018-12-12T01:39:43.665Z,62.99
2018-12-12T01:42:12.044Z,58.87
2018-12-12T01:44:40.700Z,56.97
2018-12-12T01:47:09.113Z,57.48
2018-12-12T01:49:37.495Z,57.94
2018-12-12T01:52:05.928Z,59.06
2018-12-12T01:54:34.374Z,58.34
2018-12-12T01:57:03.206Z,64.49
2018-12-12T01:59:31.647Z,59.01
2018-12-12T02:02:00.170Z,59.64
2018-12-12T02:04:28.524Z,59.23
2018-12-12T02:06:56.920Z,60.41
2018-12-12T02:09:25.343Z,64.45
2018-12-12T02:11:53.753Z,61.92
2018-12-12T02:14:22.186Z,59.91
2018-12-12T02:16:50.670Z,60.55
2018-12-12T02:19:19.314Z,60.97
2018-12-12T02:21:47.693Z,60.62
2018-12-12T02:24:16.088Z,61.82
2018-12-12T02:26:44.633Z,65.64
2018-12-12T02:29:13.037Z,72.37
2018-12-12T02:31:41.506Z,74.01
2018-12-12T02:34:09.957Z,77.36
2018-12-12T02:36:38.690Z,79.91
2018-12-12T02:39:08.592Z,81.22
2018-12-12T02:41:37.058Z,80.13
2018-12-12T02:44:05.303Z,78.99
2018-12-12T02:46:33.600Z,79.51
2018-12-12T02:49:02.096Z,81.43
2018-12-12T02:51:30.698Z,79.05
2018-12-12T02:53:59.229Z,78.25
2018-12-12T02:56:27.549Z,78.36
2018-12-12T02:58:56.124Z,81.26
2018-12-12T03:01:24.420Z,79.97
2018-12-12T03:03:53.094Z,81.69
2018-12-12T03:06:21.535Z,80.50
2018-12-12T03:08:49.750Z,83.99
2018-12-12T03:11:23.973Z,83.19
2018-12-12T03:13:53.135Z,84.80
2018-12-12T03:16:22.092Z,85.72
2018-12-12T03:18:50.615Z,82.84
2018-12-12T03:21:19.307Z,81.95
2018-12-12T03:23:48.050Z,85.03
2018-12-12T03:26:16.734Z,89.75
2018-12-12T03:28:45.229Z,85.04
2018-12-12T03:31:13.801Z,84.48
2018-12-12T03:33:42.130Z,88.50
2018-12-12T03:36:10.520Z,84.82
2018-12-12T03:38:38.949Z,83.89
2018-12-12T03:41:07.419Z,83.17
2018-12-12T03:43:35.780Z,83.44
2018-12-12T03:46:04.119Z,78.97
2018-12-12T03:48:32.566Z,79.23
2018-12-12T03:51:01.255Z,80.74
2018-12-12T03:53:29.797Z,79.56
2018-12-12T03:55:58.324Z,79.00
2018-12-12T03:58:26.858Z,79.61
2018-12-12T04:00:55.241Z,80.02
2018-12-12T04:03:24.492Z,81.15
2018-12-12T04:05:52.913Z,83.67
2018-12-12T04:08:21.442Z,85.37
2018-12-12T04:10:49.910Z,86.68
2018-12-12T04:13:18.558Z,81.78
2018-12-12T04:15:47.110Z,78.89
2018-12-12T04:18:15.682Z,86.62
2018-12-12T04:20:44.280Z,84.91
2018-12-12T04:23:12.757Z,84.27
2018-12-12T04:25:41.649Z,79.81
2018-12-12T04:28:10.346Z,80.30
2018-12-12T04:30:39.129Z,81.01
2018-12-12T04:33:07.496Z,87.09
2018-12-12T04:35:35.934Z,83.08
2018-12-12T04:38:04.414Z,82.49
2018-12-12T04:40:32.803Z,80.21
2018-12-12T04:43:01.150Z,79.23
2018-12-12T04:45:29.408Z,78.88
2018-12-12T04:47:57.860Z,78.25
2018-12-12T04:50:26.467Z,77.98
2018-12-12T04:52:54.926Z,78.85
2018-12-12T04:55:23.614Z,77.34
2018-12-12T04:57:52.242Z,76.38
2018-12-12T05:00:20.750Z,76.26
2018-12-12T05:02:50.163Z,75.93
2018-12-12T05:05:19.132Z,75.73
2018-12-12T05:07:47.834Z,75.50
2018-12-12T05:10:16.595Z,75.49
2018-12-12T05:12:45.259Z,75.23
2018-12-12T05:15:13.794Z,77.12
2018-12-12T05:17:42.429Z,76.06
2018-12-12T05:20:10.858Z,74.13
2018-12-12T05:22:39.499Z,72.19
2018-12-12T05:25:08.040Z,70.68
2018-12-12T05:27:36.740Z,68.70
2018-12-12T05:30:05.941Z,68.47
2018-12-12T05:32:34.425Z,68.34
2018-12-12T05:35:03.000Z,67.60
2018-12-12T05:37:31.394Z,70.12
2018-12-12T05:40:04.943Z,66.66
2018-12-12T05:42:33.854Z,68.15
2018-12-12T05:45:02.197Z,67.43
2018-12-12T05:47:30.695Z,66.66
2018-12-12T05:49:59.246Z,67.06
2018-12-12T05:52:27.718Z,66.74
2018-12-12T05:54:56.413Z,66.18
2018-12-12T05:57:25.102Z,65.82
2018-12-12T05:59:53.781Z,68.14
2018-12-12T06:02:22.276Z,66.97
2018-12-12T06:04:50.666Z,66.82
2018-12-12T06:07:19.253Z,71.65
2018-12-12T06:09:47.623Z,65.72
2018-12-12T06:12:16.661Z,65.06
2018-12-12T06:14:45.143Z,65.45
2018-12-12T06:17:13.802Z,65.84
2018-12-12T06:19:43.435Z,66.17
2018-12-12T06:22:11.970Z,66.05
2018-12-12T06:24:40.683Z,66.25
2018-12-12T06:27:09.044Z,66.94
2018-12-12T06:29:37.721Z,67.52
2018-12-12T06:32:06.373Z,67.43
2018-12-12T06:34:35.061Z,70.34
2018-12-12T06:37:03.695Z,68.21
2018-12-12T06:39:32.104Z,66.84
2018-12-12T06:42:00.973Z,68.98
2018-12-12T06:44:29.414Z,68.05
2018-12-12T06:46:57.926Z,65.99
2018-12-12T06:49:28.676Z,64.88
2018-12-12T06:51:57.121Z,69.00
2018-12-12T06:54:25.791Z,64.07
2018-12-12T06:56:55.206Z,64.38
2018-12-12T06:59:24.189Z,65.34
2018-12-12T07:01:52.739Z,64.08
2018-12-12T07:04:21.116Z,64.78
2018-12-12T07:06:49.476Z,65.39
2018-12-12T07:09:18.213Z,65.04
2018-12-12T07:11:46.727Z,66.59
2018-12-12T07:14:15.266Z,65.38
2018-12-12T07:16:47.065Z,64.53
2018-12-12T07:19:15.457Z,65.79
2018-12-12T07:21:43.979Z,66.11
2018-12-12T07:24:12.392Z,66.89
2018-12-12T07:26:40.937Z,68.01
2018-12-12T07:29:09.701Z,67.88
2018-12-12T07:31:38.239Z,68.00
2018-12-12T07:34:06.831Z,67.64
2018-12-12T07:36:35.491Z,68.18
2018-12-12T07:39:06.680Z,68.39
2018-12-12T07:41:35.423Z,68.01
2018-12-12T07:44:04.188Z,68.06
2018-12-12T07:46:32.820Z,68.24
2018-12-12T07:49:01.938Z,68.85
2018-12-12T07:51:30.681Z,67.84
2018-12-12T07:53:59.014Z,67.36
2018-12-12T07:56:27.464Z,66.55
2018-12-12T07:58:55.798Z,66.80
2018-12-12T08:01:24.337Z,65.02
2018-12-12T08:03:52.765Z,64.13
2018-12-12T08:06:21.480Z,63.68
2018-12-12T08:08:49.917Z,63.24
2018-12-12T08:11:18.415Z,63.94
2018-12-12T08:13:47.150Z,62.56
2018-12-12T08:16:15.639Z,63.12
2018-12-12T08:18:59.406Z,63.15
2018-12-12T08:21:29.939Z,63.08
2018-12-12T08:23:58.780Z,62.71
2018-12-12T08:26:27.608Z,62.23
2018-12-12T08:28:56.415Z,63.29
2018-12-12T08:31:26.065Z,62.23
2018-12-12T08:33:54.729Z,62.03
2018-12-12T08:36:23.240Z,63.78
2018-12-12T08:39:00.380Z,63.09
2018-12-12T08:41:32.482Z,63.49
2018-12-12T08:44:01.003Z,60.59
2018-12-12T08:46:30.868Z,62.88
2018-12-12T08:48:59.346Z,63.88
2018-12-12T08:51:27.865Z,60.59
2018-12-12T08:53:56.411Z,62.22
2018-12-12T08:56:24.995Z,59.58
2018-12-12T08:58:53.994Z,59.69
2018-12-12T09:01:22.611Z,61.00
2018-12-12T09:04:07.478Z,60.84
2018-12-12T09:06:36.294Z,60.65
2018-12-12T09:09:07.272Z,60.55
2018-12-12T09:11:35.827Z,62.00
2018-12-12T09:14:04.222Z,60.63
2018-12-12T09:16:32.894Z,59.49
2018-12-12T09:19:01.434Z,59.64
2018-12-12T09:21:30.938Z,59.66
2018-12-12T09:23:59.557Z,58.91
2018-12-12T09:26:28.147Z,58.11
2018-12-12T09:28:56.514Z,58.38
2018-12-12T09:31:25.073Z,57.03
2018-12-12T09:33:53.548Z,54.62
2018-12-12T09:36:22.260Z,54.56
2018-12-12T09:38:50.798Z,55.22
2018-12-12T09:41:19.105Z,53.73
2018-12-12T09:43:47.608Z,52.56
2018-12-12T09:46:16.486Z,51.71
2018-12-12T09:48:45.260Z,51.63
2018-12-12T09:51:13.751Z,52.64
2018-12-12T09:53:42.216Z,52.49
2018-12-12T09:56:10.992Z,52.82
2018-12-12T09:58:39.860Z,53.07
2018-12-12T10:01:08.315Z,51.79
2018-12-12T10:03:36.925Z,52.07
2018-12-12T10:06:05.678Z,52.27
2018-12-12T10:08:33.977Z,51.52
2018-12-12T10:11:03.605Z,53.10
2018-12-12T10:13:32.385Z,52.44
2018-12-12T10:16:00.852Z,53.97
2018-12-12T10:18:29.368Z,51.98
2018-12-12T10:20:57.961Z,53.31
2018-12-12T10:23:26.305Z,51.73
2018-12-12T10:25:54.745Z,54.61
2018-12-12T10:28:23.189Z,51.87
2018-12-12T10:30:51.487Z,53.49
2018-12-12T10:33:19.953Z,52.05
2018-12-12T10:35:48.913Z,51.71
2018-12-12T10:38:17.447Z,51.35
2018-12-12T10:40:45.953Z,50.01
2018-12-12T10:43:14.619Z,50.82
2018-12-12T10:45:43.277Z,50.07
2018-12-12T10:48:12.313Z,50.61
2018-12-12T10:50:41.633Z,51.22
2018-12-12T10:53:10.382Z,49.81
2018-12-12T10:55:38.809Z,47.64
2018-12-12T10:58:07.400Z,47.20
2018-12-12T11:00:39.936Z,49.80
2018-12-12T11:03:14.273Z,48.86
2018-12-12T11:05:42.546Z,49.39
2018-12-12T11:08:11.117Z,50.54
2018-12-12T11:10:39.905Z,51.17
2018-12-12T11:13:08.673Z,50.61
2018-12-12T11:15:37.146Z,51.44
2018-12-12T11:18:05.560Z,54.64
2018-12-12T11:20:34.017Z,52.56
2018-12-12T11:23:03.256Z,53.81
2018-12-12T11:25:31.602Z,54.25
2018-12-12T11:27:59.962Z,52.52
2018-12-12T11:30:28.367Z,51.40
2018-12-12T11:32:56.737Z,51.07
2018-12-12T11:35:25.250Z,53.02
2018-12-12T11:37:53.487Z,50.46
2018-12-12T11:40:22.046Z,53.17
2018-12-12T11:42:50.756Z,50.90
2018-12-12T11:45:19.201Z,52.37
2018-12-12T11:47:47.870Z,50.89
2018-12-12T11:50:16.375Z,50.27
2018-12-12T11:52:44.676Z,49.22
2018-12-12T11:55:13.115Z,48.75
2018-12-12T11:57:41.951Z,47.11
2018-12-12T12:00:10.519Z,48.53
2018-12-12T12:02:39.110Z,48.15
2018-12-12T12:05:07.854Z,48.67
2018-12-12T12:07:36.281Z,50.32
2018-12-12T12:10:05.708Z,47.80
2018-12-12T12:12:34.092Z,45.90
2018-12-12T12:15:02.354Z,50.21
2018-12-12T12:17:30.607Z,45.90
2018-12-12T12:19:59.099Z,48.03
2018-12-12T12:22:27.674Z,47.17
2018-12-12T12:24:56.046Z,49.11
2018-12-12T12:27:24.717Z,47.16
2018-12-12T12:29:53.499Z,48.04
2018-12-12T12:32:22.589Z,46.59
2018-12-12T12:34:50.954Z,46.28
2018-12-12T12:37:19.387Z,45.47
2018-12-12T12:39:53.464Z,45.35
2018-12-12T12:45:14.654Z,46.59
2018-12-12T12:47:51.254Z,46.25
2018-12-12T12:50:45.901Z,47.04
2018-12-12T12:53:14.616Z,47.78
2018-12-12T12:55:43.037Z,47.27
2018-12-12T12:58:11.740Z,46.67
2018-12-12T13:00:40.103Z,48.20
2018-12-12T13:03:08.536Z,48.00
2018-12-12T13:05:36.914Z,48.39
2018-12-12T13:08:05.342Z,49.00
2018-12-12T13:10:34.110Z,48.83
2018-12-12T13:13:02.806Z,49.39
2018-12-12T13:15:31.600Z,49.15
2018-12-12T13:18:00.556Z,52.38
2018-12-12T13:20:29.060Z,49.73
2018-12-12T13:22:57.417Z,50.65
2018-12-12T13:25:26.177Z,51.01
2018-12-12T13:27:54.639Z,51.35
2018-12-12T13:30:23.295Z,50.65
2018-12-12T13:32:51.816Z,51.15
2018-12-12T13:35:20.230Z,51.62
2018-12-12T13:37:48.844Z,52.27
2018-12-12T13:40:17.250Z,52.85
2018-12-12T13:42:45.553Z,53.38
2018-12-12T13:45:14.068Z,53.52
2018-12-12T13:47:43.112Z,55.36
2018-12-12T13:50:11.730Z,54.22
2018-12-12T13:52:40.260Z,53.92
2018-12-12T13:55:08.673Z,55.35
2018-12-12T13:57:37.122Z,53.77
2018-12-12T14:00:06.268Z,55.48
2018-12-12T14:02:34.615Z,53.84
2018-12-12T14:05:03.043Z,54.35
2018-12-12T14:07:31.366Z,55.50
2018-12-12T14:10:03.191Z,54.30
2018-12-12T14:12:31.923Z,55.00
2018-12-12T14:15:00.316Z,54.64
2018-12-12T14:17:30.024Z,54.36
2018-12-12T14:19:58.663Z,54.89
2018-12-12T14:22:27.068Z,58.29
2018-12-12T14:24:55.364Z,54.88
2018-12-12T14:27:23.824Z,54.40
2018-12-12T14:29:52.412Z,55.07
2018-12-12T14:32:21.543Z,55.80
2018-12-12T14:34:49.873Z,56.49
2018-12-12T14:37:18.314Z,57.27
2018-12-12T14:39:46.703Z,55.00
2018-12-12T14:42:15.162Z,54.93
2018-12-12T14:44:43.574Z,55.06
2018-12-12T14:47:11.878Z,55.48
2018-12-12T14:49:40.345Z,57.60
2018-12-12T14:52:08.594Z,56.62
2018-12-12T14:54:36.750Z,55.52
2018-12-12T14:57:05.565Z,54.96
2018-12-12T14:59:33.982Z,55.86
2018-12-12T15:02:02.499Z,58.11
2018-12-12T15:04:35.911Z,59.99
2018-12-12T15:07:02.404Z,58.16
2018-12-12T15:09:30.781Z,56.73
2018-12-12T15:11:59.647Z,57.04
2018-12-12T15:14:28.236Z,58.19
2018-12-12T15:16:57.113Z,55.90
2018-12-12T15:19:26.066Z,56.97
2018-12-12T15:21:55.088Z,55.38
2018-12-12T15:24:23.471Z,55.43
2018-12-12T15:26:51.821Z,54.81
2018-12-12T15:29:20.504Z,57.66
2018-12-12T15:31:48.788Z,55.08
2018-12-12T15:34:17.190Z,56.75
2018-12-12T15:36:45.678Z,55.74
2018-12-12T15:39:14.185Z,56.42
2018-12-12T15:41:42.562Z,60.23
2018-12-12T15:44:11.010Z,58.04
2018-12-12T15:46:39.657Z,56.28
2018-12-12T15:49:08.236Z,54.87
2018-12-12T15:51:36.948Z,56.83
2018-12-12T15:54:05.875Z,54.61
2018-12-12T15:56:35.929Z,55.64
2018-12-12T15:59:05.180Z,52.89
2018-12-12T16:01:37.308Z,53.53
2018-12-12T16:04:06.288Z,55.26
2018-12-12T16:06:36.881Z,53.58
2018-12-12T16:09:10.882Z,52.42
2018-12-12T16:11:39.315Z,53.72
2018-12-12T16:14:07.850Z,53.15
2018-12-12T16:16:36.482Z,53.27
2018-12-12T16:19:05.192Z,57.65
2018-12-12T16:21:33.578Z,54.51
2018-12-12T16:24:02.100Z,53.51
2018-12-12T16:26:30.509Z,54.10
2018-12-12T16:29:00.686Z,55.19
2018-12-12T16:31:29.643Z,55.69
2018-12-12T16:33:57.879Z,57.03
2018-12-12T16:36:26.645Z,57.80
2018-12-12T16:38:55.849Z,58.76
2018-12-12T16:41:24.340Z,59.14
2018-12-12T16:43:53.617Z,59.70
2018-12-12T16:46:22.923Z,60.07
2018-12-12T16:48:51.938Z,60.77
2018-12-12T16:51:20.805Z,60.65
2018-12-12T16:53:49.399Z,60.91
2018-12-12T16:56:18.083Z,61.12
2018-12-12T16:58:46.402Z,61.27
2018-12-12T17:01:14.924Z,61.16
2018-12-12T17:03:43.461Z,61.56
2018-12-12T17:06:11.993Z,61.40
2018-12-12T17:08:41.686Z,61.09
2018-12-12T17:11:10.253Z,60.76
2018-12-12T17:13:40.138Z,61.18
2018-12-12T17:16:08.655Z,61.60
2018-12-12T17:18:38.088Z,65.16
2018-12-12T17:21:06.775Z,62.10
2018-12-12T17:23:35.437Z,62.36
2018-12-12T17:26:04.097Z,61.72
2018-12-12T17:28:32.552Z,64.55
2018-12-12T17:31:01.067Z,61.54
2018-12-12T17:50:22.545Z,60.93
2018-12-12T17:52:51.192Z,60.79
2018-12-12T17:55:20.691Z,60.54
2018-12-12T17:57:49.645Z,60.34
2018-12-12T18:00:18.463Z,60.01
2018-12-12T18:02:47.603Z,59.18
2018-12-12T18:05:16.402Z,60.60
2018-12-12T18:07:44.962Z,60.69
2018-12-12T18:10:13.349Z,59.78
2018-12-12T18:12:43.588Z,59.28
2018-12-12T18:15:12.275Z,59.51
2018-12-12T18:17:42.679Z,60.46
2018-12-12T18:20:14.099Z,58.93
2018-12-12T18:22:44.977Z,58.70
2018-12-12T18:25:14.297Z,58.83
2018-12-12T18:27:43.970Z,59.15
2018-12-12T18:30:13.638Z,59.65
2018-12-12T18:32:42.192Z,60.21
2018-12-12T18:35:12.294Z,62.79
2018-12-12T18:37:42.494Z,63.66
2018-12-12T18:40:11.074Z,62.33
2018-12-12T18:42:42.256Z,62.93
2018-12-12T18:45:12.633Z,62.99
2018-12-12T18:47:43.355Z,64.54
2018-12-12T18:50:12.863Z,66.19
2018-12-12T18:52:43.356Z,66.98
2018-12-12T18:55:12.403Z,67.47
2018-12-12T18:57:41.508Z,67.82
2018-12-12T19:00:10.732Z,68.74
2018-12-12T19:02:40.408Z,68.73
2018-12-12T19:05:09.173Z,68.85
2018-12-12T19:07:37.671Z,68.05
2018-12-12T19:10:06.852Z,68.76
2018-12-12T19:12:35.356Z,68.11
2018-12-12T19:15:05.410Z,68.05
2018-12-12T19:17:33.960Z,68.56
2018-12-12T19:20:02.458Z,67.92
2018-12-12T19:22:30.924Z,68.50
2018-12-12T19:24:59.365Z,68.10
2018-12-12T19:27:27.689Z,69.70
2018-12-12T19:29:56.181Z,69.28
2018-12-12T19:32:24.564Z,67.40
2018-12-12T19:34:52.838Z,67.14
2018-12-12T19:37:21.249Z,69.65
2018-12-12T19:39:49.793Z,66.50
2018-12-12T19:42:18.204Z,66.69
2018-12-12T19:44:46.600Z,67.67
2018-12-12T19:47:16.019Z,67.05
2018-12-12T19:49:45.201Z,67.28
2018-12-12T19:52:13.583Z,68.08
2018-12-12T19:54:42.213Z,66.71
2018-12-12T19:57:11.123Z,67.33
2018-12-12T19:59:39.969Z,68.43
2018-12-12T20:02:08.519Z,67.08
2018-12-12T20:04:37.581Z,69.91
2018-12-12T20:07:06.162Z,68.02
2018-12-12T20:09:35.764Z,68.26
2018-12-12T20:12:04.443Z,68.72
2018-12-12T20:14:33.151Z,66.95
2018-12-12T20:17:01.491Z,67.00
2018-12-12T20:19:30.162Z,67.03
2018-12-12T20:21:58.582Z,67.47
2018-12-12T20:24:27.003Z,69.46
2018-12-12T20:26:55.383Z,66.76
2018-12-12T20:29:23.748Z,68.17
2018-12-12T20:31:53.620Z,67.72
2018-12-12T20:34:21.840Z,67.11
2018-12-12T20:36:50.115Z,67.52
2018-12-12T20:39:18.974Z,68.35
2018-12-12T20:41:47.857Z,68.96
2018-12-12T20:44:16.614Z,69.31
2018-12-12T20:46:45.480Z,69.28
2018-12-12T20:49:14.481Z,69.59
2018-12-12T20:51:43.151Z,70.41
2018-12-12T20:54:11.657Z,70.95
2018-12-12T20:56:39.988Z,70.16
2018-12-12T20:59:08.329Z,70.45
2018-12-12T21:01:36.774Z,69.75
2018-12-12T21:04:04.988Z,69.20
2018-12-12T21:06:33.846Z,69.65
2018-12-12T21:09:02.369Z,70.79
2018-12-12T21:11:30.939Z,71.61
2018-12-12T21:13:59.322Z,71.13
2018-12-12T21:16:28.028Z,72.06
2018-12-12T21:18:56.427Z,73.31
2018-12-12T21:21:25.104Z,71.58
2018-12-12T21:23:53.452Z,69.96
2018-12-12T21:26:22.515Z,74.40
2018-12-12T21:28:50.831Z,72.07
2018-12-12T21:31:19.230Z,74.21
2018-12-12T21:33:47.691Z,70.04
2018-12-12T21:36:16.039Z,70.75
2018-12-12T21:38:44.401Z,73.31
2018-12-12T21:41:12.914Z,71.65
2018-12-12T21:43:41.328Z,73.38
2018-12-12T21:46:09.770Z,70.45
2018-12-12T21:48:45.214Z,70.89
2018-12-12T21:51:26.073Z,71.53
2018-12-12T21:53:54.821Z,74.36
2018-12-12T21:56:23.383Z,71.56
2018-12-12T21:58:51.731Z,72.57
2018-12-12T22:01:20.047Z,69.56
2018-12-12T22:03:48.438Z,67.55
2018-12-12T22:06:16.827Z,69.27
2018-12-12T22:08:45.521Z,68.49
2018-12-12T22:11:14.218Z,68.71
2018-12-12T22:13:42.584Z,68.71
2018-12-12T22:16:11.133Z,69.54
2018-12-12T22:18:39.468Z,68.97
2018-12-12T22:21:07.715Z,71.84
2018-12-12T22:23:36.025Z,70.86
2018-12-12T22:26:05.052Z,70.86
2018-12-12T22:28:33.468Z,70.20
2018-12-12T22:31:01.965Z,70.33
2018-12-12T22:33:30.383Z,69.82
2018-12-12T22:35:59.212Z,71.84
2018-12-12T22:38:27.889Z,72.54
2018-12-12T22:40:56.534Z,70.66
2018-12-12T22:43:25.153Z,70.82
2018-12-12T22:45:53.862Z,74.39
2018-12-12T22:48:23.063Z,70.21
2018-12-12T22:50:51.396Z,70.21
2018-12-12T22:53:19.820Z,69.20
2018-12-12T22:55:48.253Z,69.25
2018-12-12T22:58:16.861Z,70.60
2018-12-12T23:00:50.661Z,69.11
2018-12-12T23:03:18.920Z,69.60
2018-12-12T23:05:47.390Z,70.05
2018-12-12T23:08:16.155Z,71.10
2018-12-12T23:10:44.928Z,71.59
2018-12-12T23:13:13.715Z,71.77
2018-12-12T23:15:42.022Z,71.72
2018-12-12T23:18:10.917Z,73.05
2018-12-12T23:20:39.638Z,72.27
2018-12-12T23:23:08.155Z,74.03
2018-12-12T23:25:36.676Z,76.84
2018-12-12T23:28:05.214Z,73.60
2018-12-12T23:30:33.652Z,74.11
2018-12-12T23:33:02.091Z,73.73
2018-12-12T23:35:30.435Z,73.47
2018-12-12T23:37:59.166Z,75.40
2018-12-12T23:40:27.715Z,73.72
2018-12-12T23:42:56.302Z,73.81
2018-12-12T23:45:25.237Z,72.62
2018-12-12T23:47:53.870Z,74.04
2018-12-12T23:50:22.494Z,72.95
2018-12-12T23:52:51.278Z,72.47
2018-12-12T23:55:19.740Z,71.57
2018-12-12T23:57:48.672Z,71.97
